sensor_id;sensor_type;location;lat;lon;timestamp;P1;durP1;ratioP1;P2;durP2;ratioP2
28343;SDS011;15597;50.914;6.638;2024-03-08T00:01:18;20.42;;;11.63;;
28343;SDS011;15597;50.914;6.638;2024-03-08T00:03:44;18.58;;;11.35;;
28343;SDS011;15597;50.914;6.638;2024-03-08T00:06:10;21.27;;;11.63;;
28343;SDS011;15597;50.914;6.638;2024-03-08T00:08:36;22.00;;;11.65;;
28343;SDS011;15597;50.914;6.638;2024-03-08T00:11:02;21.65;;;12.13;;
28343;SDS011;15597;50.914;6.638;2024-03-08T00:13:27;20.15;;;11.30;;
28343;SDS011;15597;50.914;6.638;2024-03-08T00:15:53;21.13;;;11.25;;
28343;SDS011;15597;50.914;6.638;2024-03-08T00:18:19;19.30;;;11.50;;
28343;SDS011;15597;50.914;6.638;2024-03-08T00:20:44;19.73;;;10.95;;
28343;SDS011;15597;50.914;6.638;2024-03-08T00:23:10;21.98;;;11.82;;
28343;SDS011;15597;50.914;6.638;2024-03-08T00:25:37;21.25;;;11.43;;
28343;SDS011;15597;50.914;6.638;2024-03-08T00:28:04;21.85;;;11.25;;
28343;SDS011;15597;50.914;6.638;2024-03-08T00:30:31;20.63;;;12.02;;
28343;SDS011;15597;50.914;6.638;2024-03-08T00:32:56;21.52;;;11.15;;
28343;SDS011;15597;50.914;6.638;2024-03-08T00:35:22;20.92;;;11.20;;
28343;SDS011;15597;50.914;6.638;2024-03-08T00:37:48;22.63;;;11.50;;
28343;SDS011;15597;50.914;6.638;2024-03-08T00:40:13;18.55;;;10.77;;
28343;SDS011;15597;50.914;6.638;2024-03-08T00:42:40;19.63;;;11.32;;
28343;SDS011;15597;50.914;6.638;2024-03-08T00:45:06;20.52;;;11.20;;
28343;SDS011;15597;50.914;6.638;2024-03-08T00:47:35;21.08;;;12.48;;
28343;SDS011;15597;50.914;6.638;2024-03-08T00:50:01;22.58;;;12.18;;
28343;SDS011;15597;50.914;6.638;2024-03-08T00:52:29;20.83;;;11.30;;
28343;SDS011;15597;50.914;6.638;2024-03-08T00:54:55;19.83;;;10.32;;
28343;SDS011;15597;50.914;6.638;2024-03-08T00:57:21;21.00;;;11.57;;
28343;SDS011;15597;50.914;6.638;2024-03-08T00:59:47;22.85;;;13.20;;
28343;SDS011;15597;50.914;6.638;2024-03-08T01:02:13;20.27;;;12.20;;
28343;SDS011;15597;50.914;6.638;2024-03-08T01:04:39;25.85;;;11.95;;
28343;SDS011;15597;50.914;6.638;2024-03-08T01:07:04;19.75;;;11.70;;
28343;SDS011;15597;50.914;6.638;2024-03-08T01:09:31;21.67;;;11.52;;
28343;SDS011;15597;50.914;6.638;2024-03-08T01:11:57;20.70;;;12.00;;
28343;SDS011;15597;50.914;6.638;2024-03-08T01:14:23;23.45;;;11.57;;
28343;SDS011;15597;50.914;6.638;2024-03-08T01:16:49;22.70;;;11.10;;
28343;SDS011;15597;50.914;6.638;2024-03-08T01:19:15;19.90;;;11.18;;
28343;SDS011;15597;50.914;6.638;2024-03-08T01:21:41;19.70;;;11.57;;
28343;SDS011;15597;50.914;6.638;2024-03-08T01:24:07;21.48;;;11.20;;
28343;SDS011;15597;50.914;6.638;2024-03-08T01:26:33;22.02;;;10.85;;
28343;SDS011;15597;50.914;6.638;2024-03-08T01:29:01;18.27;;;10.63;;
28343;SDS011;15597;50.914;6.638;2024-03-08T01:31:30;21.90;;;11.52;;
28343;SDS011;15597;50.914;6.638;2024-03-08T01:33:57;22.20;;;11.82;;
28343;SDS011;15597;50.914;6.638;2024-03-08T01:36:25;21.52;;;11.90;;
28343;SDS011;15597;50.914;6.638;2024-03-08T01:38:52;20.20;;;11.38;;
28343;SDS011;15597;50.914;6.638;2024-03-08T01:41:17;25.02;;;12.35;;
28343;SDS011;15597;50.914;6.638;2024-03-08T01:43:43;20.30;;;10.63;;
28343;SDS011;15597;50.914;6.638;2024-03-08T01:46:10;22.88;;;11.93;;
28343;SDS011;15597;50.914;6.638;2024-03-08T01:48:40;22.10;;;10.93;;
28343;SDS011;15597;50.914;6.638;2024-03-08T01:51:07;24.63;;;11.82;;
28343;SDS011;15597;50.914;6.638;2024-03-08T01:53:33;22.70;;;11.35;;
28343;SDS011;15597;50.914;6.638;2024-03-08T01:55:59;20.63;;;11.27;;
28343;SDS011;15597;50.914;6.638;2024-03-08T01:58:28;23.02;;;12.32;;
28343;SDS011;15597;50.914;6.638;2024-03-08T02:00:54;19.98;;;11.15;;
28343;SDS011;15597;50.914;6.638;2024-03-08T02:03:21;20.90;;;12.60;;
28343;SDS011;15597;50.914;6.638;2024-03-08T02:05:47;23.25;;;11.40;;
28343;SDS011;15597;50.914;6.638;2024-03-08T02:08:14;22.15;;;11.55;;
28343;SDS011;15597;50.914;6.638;2024-03-08T02:10:40;20.67;;;11.50;;
28343;SDS011;15597;50.914;6.638;2024-03-08T02:13:07;19.75;;;11.07;;
28343;SDS011;15597;50.914;6.638;2024-03-08T02:18:23;22.67;;;11.45;;
28343;SDS011;15597;50.914;6.638;2024-03-08T02:20:49;21.55;;;11.45;;
28343;SDS011;15597;50.914;6.638;2024-03-08T02:23:17;22.33;;;12.02;;
28343;SDS011;15597;50.914;6.638;2024-03-08T02:25:46;21.52;;;11.80;;
28343;SDS011;15597;50.914;6.638;2024-03-08T02:28:13;19.88;;;10.70;;
28343;SDS011;15597;50.914;6.638;2024-03-08T02:30:39;20.58;;;10.60;;
28343;SDS011;15597;50.914;6.638;2024-03-08T02:33:05;24.05;;;11.30;;
28343;SDS011;15597;50.914;6.638;2024-03-08T02:35:32;23.63;;;12.90;;
28343;SDS011;15597;50.914;6.638;2024-03-08T02:37:59;23.20;;;12.68;;
28343;SDS011;15597;50.914;6.638;2024-03-08T02:40:25;21.17;;;11.38;;
28343;SDS011;15597;50.914;6.638;2024-03-08T02:42:51;22.90;;;12.40;;
28343;SDS011;15597;50.914;6.638;2024-03-08T02:45:16;21.95;;;11.18;;
28343;SDS011;15597;50.914;6.638;2024-03-08T02:47:42;25.83;;;11.88;;
28343;SDS011;15597;50.914;6.638;2024-03-08T02:50:08;21.30;;;11.63;;
28343;SDS011;15597;50.914;6.638;2024-03-08T02:52:34;23.77;;;11.52;;
28343;SDS011;15597;50.914;6.638;2024-03-08T02:55:01;21.88;;;12.45;;
28343;SDS011;15597;50.914;6.638;2024-03-08T02:57:31;23.08;;;11.15;;
28343;SDS011;15597;50.914;6.638;2024-03-08T02:59:57;22.13;;;11.70;;
28343;SDS011;15597;50.914;6.638;2024-03-08T03:02:25;21.52;;;11.18;;
28343;SDS011;15597;50.914;6.638;2024-03-08T03:04:52;21.65;;;11.93;;
28343;SDS011;15597;50.914;6.638;2024-03-08T03:07:18;20.48;;;11.27;;
28343;SDS011;15597;50.914;6.638;2024-03-08T03:09:43;23.70;;;11.90;;
28343;SDS011;15597;50.914;6.638;2024-03-08T03:12:09;21.65;;;11.20;;
28343;SDS011;15597;50.914;6.638;2024-03-08T03:14:35;24.83;;;12.65;;
28343;SDS011;15597;50.914;6.638;2024-03-08T03:17:04;25.42;;;12.55;;
28343;SDS011;15597;50.914;6.638;2024-03-08T03:19:30;24.38;;;12.27;;
28343;SDS011;15597;50.914;6.638;2024-03-08T03:21:55;23.48;;;12.18;;
28343;SDS011;15597;50.914;6.638;2024-03-08T03:24:22;22.25;;;11.90;;
28343;SDS011;15597;50.914;6.638;2024-03-08T03:26:48;21.67;;;11.48;;
28343;SDS011;15597;50.914;6.638;2024-03-08T03:29:15;24.40;;;12.90;;
28343;SDS011;15597;50.914;6.638;2024-03-08T03:31:42;23.95;;;12.23;;
28343;SDS011;15597;50.914;6.638;2024-03-08T03:34:10;23.77;;;12.10;;
28343;SDS011;15597;50.914;6.638;2024-03-08T03:36:37;27.52;;;13.70;;
28343;SDS011;15597;50.914;6.638;2024-03-08T03:39:10;25.65;;;12.82;;
28343;SDS011;15597;50.914;6.638;2024-03-08T03:41:38;22.77;;;11.85;;
28343;SDS011;15597;50.914;6.638;2024-03-08T03:44:04;21.55;;;11.48;;
28343;SDS011;15597;50.914;6.638;2024-03-08T03:46:32;23.05;;;12.93;;
28343;SDS011;15597;50.914;6.638;2024-03-08T03:48:58;23.30;;;12.00;;
28343;SDS011;15597;50.914;6.638;2024-03-08T03:51:24;22.70;;;11.80;;
28343;SDS011;15597;50.914;6.638;2024-03-08T03:53:49;23.70;;;12.40;;
28343;SDS011;15597;50.914;6.638;2024-03-08T03:56:15;21.42;;;10.68;;
28343;SDS011;15597;50.914;6.638;2024-03-08T03:58:41;23.75;;;12.00;;
28343;SDS011;15597;50.914;6.638;2024-03-08T04:01:07;21.70;;;11.52;;
28343;SDS011;15597;50.914;6.638;2024-03-08T04:03:35;24.20;;;11.48;;
28343;SDS011;15597;50.914;6.638;2024-03-08T04:06:03;26.23;;;12.38;;
28343;SDS011;15597;50.914;6.638;2024-03-08T04:08:30;22.50;;;11.70;;
28343;SDS011;15597;50.914;6.638;2024-03-08T04:10:56;21.23;;;10.93;;
28343;SDS011;15597;50.914;6.638;2024-03-08T04:13:22;21.27;;;11.77;;
28343;SDS011;15597;50.914;6.638;2024-03-08T04:15:47;21.85;;;12.00;;
28343;SDS011;15597;50.914;6.638;2024-03-08T04:18:14;23.10;;;12.13;;
28343;SDS011;15597;50.914;6.638;2024-03-08T04:20:39;20.73;;;12.07;;
28343;SDS011;15597;50.914;6.638;2024-03-08T04:23:05;22.20;;;11.55;;
28343;SDS011;15597;50.914;6.638;2024-03-08T04:25:31;22.73;;;12.00;;
28343;SDS011;15597;50.914;6.638;2024-03-08T04:27:57;25.80;;;12.73;;
28343;SDS011;15597;50.914;6.638;2024-03-08T04:30:23;23.55;;;12.93;;
28343;SDS011;15597;50.914;6.638;2024-03-08T04:32:49;20.92;;;11.48;;
28343;SDS011;15597;50.914;6.638;2024-03-08T04:35:15;21.80;;;11.95;;
28343;SDS011;15597;50.914;6.638;2024-03-08T04:37:41;25.65;;;12.95;;
28343;SDS011;15597;50.914;6.638;2024-03-08T04:40:07;21.50;;;11.93;;
28343;SDS011;15597;50.914;6.638;2024-03-08T04:42:33;21.90;;;11.73;;
28343;SDS011;15597;50.914;6.638;2024-03-08T04:45:01;27.77;;;14.10;;
28343;SDS011;15597;50.914;6.638;2024-03-08T04:47:27;22.73;;;12.02;;
28343;SDS011;15597;50.914;6.638;2024-03-08T04:49:53;25.17;;;13.27;;
28343;SDS011;15597;50.914;6.638;2024-03-08T04:52:19;24.27;;;12.55;;
28343;SDS011;15597;50.914;6.638;2024-03-08T04:54:47;26.15;;;13.23;;
28343;SDS011;15597;50.914;6.638;2024-03-08T04:57:13;23.45;;;12.27;;
28343;SDS011;15597;50.914;6.638;2024-03-08T04:59:39;25.77;;;11.65;;
28343;SDS011;15597;50.914;6.638;2024-03-08T05:02:05;22.45;;;12.55;;
28343;SDS011;15597;50.914;6.638;2024-03-08T05:04:32;22.70;;;11.60;;
28343;SDS011;15597;50.914;6.638;2024-03-08T05:06:58;23.10;;;12.10;;
28343;SDS011;15597;50.914;6.638;2024-03-08T05:09:26;25.35;;;12.27;;
28343;SDS011;15597;50.914;6.638;2024-03-08T05:11:54;23.05;;;12.60;;
28343;SDS011;15597;50.914;6.638;2024-03-08T05:14:19;23.00;;;11.68;;
28343;SDS011;15597;50.914;6.638;2024-03-08T05:16:46;23.83;;;12.75;;
28343;SDS011;15597;50.914;6.638;2024-03-08T05:19:15;23.52;;;12.40;;
28343;SDS011;15597;50.914;6.638;2024-03-08T05:21:44;24.48;;;12.00;;
28343;SDS011;15597;50.914;6.638;2024-03-08T05:24:10;24.65;;;11.68;;
28343;SDS011;15597;50.914;6.638;2024-03-08T05:26:36;23.70;;;12.50;;
28343;SDS011;15597;50.914;6.638;2024-03-08T05:29:05;24.65;;;12.27;;
28343;SDS011;15597;50.914;6.638;2024-03-08T05:31:33;23.25;;;11.27;;
28343;SDS011;15597;50.914;6.638;2024-03-08T05:34:09;23.17;;;11.77;;
28343;SDS011;15597;50.914;6.638;2024-03-08T05:36:35;24.77;;;13.18;;
28343;SDS011;15597;50.914;6.638;2024-03-08T05:39:01;25.73;;;13.43;;
28343;SDS011;15597;50.914;6.638;2024-03-08T05:41:27;25.00;;;12.50;;
28343;SDS011;15597;50.914;6.638;2024-03-08T05:43:52;25.27;;;13.38;;
28343;SDS011;15597;50.914;6.638;2024-03-08T05:46:19;22.67;;;13.10;;
28343;SDS011;15597;50.914;6.638;2024-03-08T05:48:44;23.77;;;12.23;;
28343;SDS011;15597;50.914;6.638;2024-03-08T05:51:10;26.95;;;11.60;;
28343;SDS011;15597;50.914;6.638;2024-03-08T05:53:37;23.95;;;11.70;;
28343;SDS011;15597;50.914;6.638;2024-03-08T05:56:03;25.02;;;13.20;;
28343;SDS011;15597;50.914;6.638;2024-03-08T05:58:28;25.42;;;12.43;;
28343;SDS011;15597;50.914;6.638;2024-03-08T06:00:57;25.65;;;12.93;;
28343;SDS011;15597;50.914;6.638;2024-03-08T06:03:22;25.48;;;13.02;;
28343;SDS011;15597;50.914;6.638;2024-03-08T06:05:48;27.42;;;13.05;;
28343;SDS011;15597;50.914;6.638;2024-03-08T06:08:14;24.95;;;12.55;;
28343;SDS011;15597;50.914;6.638;2024-03-08T06:10:41;22.38;;;12.23;;
28343;SDS011;15597;50.914;6.638;2024-03-08T06:13:06;25.75;;;13.25;;
28343;SDS011;15597;50.914;6.638;2024-03-08T06:15:32;26.45;;;12.95;;
28343;SDS011;15597;50.914;6.638;2024-03-08T06:17:58;27.85;;;13.55;;
28343;SDS011;15597;50.914;6.638;2024-03-08T06:20:23;24.45;;;12.63;;
28343;SDS011;15597;50.914;6.638;2024-03-08T06:22:51;22.98;;;11.88;;
28343;SDS011;15597;50.914;6.638;2024-03-08T06:25:17;22.88;;;12.93;;
28343;SDS011;15597;50.914;6.638;2024-03-08T06:27:43;24.30;;;12.68;;
28343;SDS011;15597;50.914;6.638;2024-03-08T06:30:09;26.15;;;13.00;;
28343;SDS011;15597;50.914;6.638;2024-03-08T06:32:36;24.02;;;12.93;;
28343;SDS011;15597;50.914;6.638;2024-03-08T06:35:03;24.80;;;12.68;;
28343;SDS011;15597;50.914;6.638;2024-03-08T06:37:34;25.08;;;11.90;;
28343;SDS011;15597;50.914;6.638;2024-03-08T06:42:28;27.27;;;13.00;;
28343;SDS011;15597;50.914;6.638;2024-03-08T06:44:55;25.23;;;13.13;;
28343;SDS011;15597;50.914;6.638;2024-03-08T06:47:25;22.50;;;11.20;;
28343;SDS011;15597;50.914;6.638;2024-03-08T06:49:51;26.83;;;12.50;;
28343;SDS011;15597;50.914;6.638;2024-03-08T06:52:17;24.38;;;12.30;;
28343;SDS011;15597;50.914;6.638;2024-03-08T06:54:43;26.30;;;12.25;;
28343;SDS011;15597;50.914;6.638;2024-03-08T06:57:09;22.38;;;11.70;;
28343;SDS011;15597;50.914;6.638;2024-03-08T06:59:35;28.65;;;13.25;;
28343;SDS011;15597;50.914;6.638;2024-03-08T07:02:02;25.58;;;12.32;;
28343;SDS011;15597;50.914;6.638;2024-03-08T07:04:29;25.45;;;12.15;;
28343;SDS011;15597;50.914;6.638;2024-03-08T07:06:57;26.50;;;13.98;;
28343;SDS011;15597;50.914;6.638;2024-03-08T07:11:50;26.85;;;12.57;;
28343;SDS011;15597;50.914;6.638;2024-03-08T07:14:23;24.90;;;12.15;;
28343;SDS011;15597;50.914;6.638;2024-03-08T07:16:49;24.95;;;12.93;;
28343;SDS011;15597;50.914;6.638;2024-03-08T07:19:16;25.25;;;12.25;;
28343;SDS011;15597;50.914;6.638;2024-03-08T07:21:45;25.60;;;12.77;;
28343;SDS011;15597;50.914;6.638;2024-03-08T07:24:12;26.77;;;13.55;;
28343;SDS011;15597;50.914;6.638;2024-03-08T07:26:42;25.52;;;12.43;;
28343;SDS011;15597;50.914;6.638;2024-03-08T07:29:15;26.27;;;12.13;;
28343;SDS011;15597;50.914;6.638;2024-03-08T07:31:41;26.33;;;13.43;;
28343;SDS011;15597;50.914;6.638;2024-03-08T07:34:07;25.13;;;11.82;;
28343;SDS011;15597;50.914;6.638;2024-03-08T07:36:33;27.92;;;12.70;;
28343;SDS011;15597;50.914;6.638;2024-03-08T07:39:00;24.25;;;12.63;;
28343;SDS011;15597;50.914;6.638;2024-03-08T07:41:26;26.60;;;12.82;;
28343;SDS011;15597;50.914;6.638;2024-03-08T07:43:54;24.50;;;12.85;;
28343;SDS011;15597;50.914;6.638;2024-03-08T07:46:20;25.75;;;12.57;;
28343;SDS011;15597;50.914;6.638;2024-03-08T07:48:46;25.60;;;13.18;;
28343;SDS011;15597;50.914;6.638;2024-03-08T07:51:11;24.20;;;12.18;;
28343;SDS011;15597;50.914;6.638;2024-03-08T07:53:39;23.70;;;12.30;;
28343;SDS011;15597;50.914;6.638;2024-03-08T07:56:06;26.40;;;13.05;;
28343;SDS011;15597;50.914;6.638;2024-03-08T07:58:32;28.58;;;13.10;;
28343;SDS011;15597;50.914;6.638;2024-03-08T08:00:58;26.73;;;12.48;;
28343;SDS011;15597;50.914;6.638;2024-03-08T08:03:24;24.48;;;11.50;;
28343;SDS011;15597;50.914;6.638;2024-03-08T08:05:49;27.13;;;12.68;;
28343;SDS011;15597;50.914;6.638;2024-03-08T08:08:15;25.05;;;12.85;;
28343;SDS011;15597;50.914;6.638;2024-03-08T08:10:40;26.58;;;12.32;;
28343;SDS011;15597;50.914;6.638;2024-03-08T08:13:07;29.30;;;13.43;;
28343;SDS011;15597;50.914;6.638;2024-03-08T08:15:33;24.08;;;12.60;;
28343;SDS011;15597;50.914;6.638;2024-03-08T08:17:59;26.80;;;12.98;;
28343;SDS011;15597;50.914;6.638;2024-03-08T08:20:25;21.55;;;11.68;;
28343;SDS011;15597;50.914;6.638;2024-03-08T08:22:53;21.65;;;11.30;;
28343;SDS011;15597;50.914;6.638;2024-03-08T08:25:20;26.00;;;12.40;;
28343;SDS011;15597;50.914;6.638;2024-03-08T08:27:46;25.63;;;12.30;;
28343;SDS011;15597;50.914;6.638;2024-03-08T08:30:12;23.52;;;12.20;;
28343;SDS011;15597;50.914;6.638;2024-03-08T08:32:39;25.20;;;12.32;;
28343;SDS011;15597;50.914;6.638;2024-03-08T08:35:05;26.38;;;12.77;;
28343;SDS011;15597;50.914;6.638;2024-03-08T08:37:31;25.42;;;12.60;;
28343;SDS011;15597;50.914;6.638;2024-03-08T08:39:57;24.25;;;11.85;;
28343;SDS011;15597;50.914;6.638;2024-03-08T08:42:23;27.73;;;12.43;;
28343;SDS011;15597;50.914;6.638;2024-03-08T08:44:49;25.25;;;12.05;;
28343;SDS011;15597;50.914;6.638;2024-03-08T08:47:16;24.88;;;12.35;;
28343;SDS011;15597;50.914;6.638;2024-03-08T08:49:45;22.40;;;11.68;;
28343;SDS011;15597;50.914;6.638;2024-03-08T08:52:15;26.35;;;12.48;;
28343;SDS011;15597;50.914;6.638;2024-03-08T08:54:42;25.80;;;13.40;;
28343;SDS011;15597;50.914;6.638;2024-03-08T08:57:10;25.05;;;12.45;;
28343;SDS011;15597;50.914;6.638;2024-03-08T08:59:36;26.08;;;12.32;;
28343;SDS011;15597;50.914;6.638;2024-03-08T09:04:34;23.30;;;11.70;;
28343;SDS011;15597;50.914;6.638;2024-03-08T09:07:01;26.02;;;12.65;;
28343;SDS011;15597;50.914;6.638;2024-03-08T09:09:26;24.20;;;11.13;;
28343;SDS011;15597;50.914;6.638;2024-03-08T09:11:53;25.98;;;12.43;;
28343;SDS011;15597;50.914;6.638;2024-03-08T09:14:19;24.80;;;12.65;;
28343;SDS011;15597;50.914;6.638;2024-03-08T09:16:45;22.52;;;10.65;;
28343;SDS011;15597;50.914;6.638;2024-03-08T09:19:12;25.05;;;12.23;;
28343;SDS011;15597;50.914;6.638;2024-03-08T09:21:38;23.55;;;12.90;;
28343;SDS011;15597;50.914;6.638;2024-03-08T09:24:05;24.10;;;12.02;;
28343;SDS011;15597;50.914;6.638;2024-03-08T09:26:32;21.98;;;11.68;;
28343;SDS011;15597;50.914;6.638;2024-03-08T09:28:58;22.17;;;11.20;;
28343;SDS011;15597;50.914;6.638;2024-03-08T09:31:25;24.58;;;12.27;;
28343;SDS011;15597;50.914;6.638;2024-03-08T09:33:51;26.60;;;12.02;;
28343;SDS011;15597;50.914;6.638;2024-03-08T09:36:17;23.60;;;11.45;;
28343;SDS011;15597;50.914;6.638;2024-03-08T09:38:43;23.27;;;11.73;;
28343;SDS011;15597;50.914;6.638;2024-03-08T09:41:09;28.05;;;12.15;;
28343;SDS011;15597;50.914;6.638;2024-03-08T09:43:35;22.52;;;12.38;;
28343;SDS011;15597;50.914;6.638;2024-03-08T09:46:03;22.83;;;11.95;;
28343;SDS011;15597;50.914;6.638;2024-03-08T09:48:32;24.70;;;11.90;;
28343;SDS011;15597;50.914;6.638;2024-03-08T09:50:58;20.88;;;10.85;;
28343;SDS011;15597;50.914;6.638;2024-03-08T09:53:24;21.02;;;10.63;;
28343;SDS011;15597;50.914;6.638;2024-03-08T09:55:49;22.35;;;12.50;;
28343;SDS011;15597;50.914;6.638;2024-03-08T09:58:15;23.17;;;12.13;;
28343;SDS011;15597;50.914;6.638;2024-03-08T10:00:51;22.42;;;11.38;;
28343;SDS011;15597;50.914;6.638;2024-03-08T10:03:16;22.35;;;11.13;;
28343;SDS011;15597;50.914;6.638;2024-03-08T10:05:42;24.75;;;11.50;;
28343;SDS011;15597;50.914;6.638;2024-03-08T10:08:09;23.75;;;11.63;;
28343;SDS011;15597;50.914;6.638;2024-03-08T10:10:36;22.73;;;11.48;;
28343;SDS011;15597;50.914;6.638;2024-03-08T10:13:06;22.60;;;11.52;;
28343;SDS011;15597;50.914;6.638;2024-03-08T10:15:32;22.55;;;12.20;;
28343;SDS011;15597;50.914;6.638;2024-03-08T10:18:00;21.55;;;10.73;;
28343;SDS011;15597;50.914;6.638;2024-03-08T10:20:32;22.10;;;11.93;;
28343;SDS011;15597;50.914;6.638;2024-03-08T10:23:02;20.30;;;11.05;;
28343;SDS011;15597;50.914;6.638;2024-03-08T10:25:33;20.70;;;10.38;;
28343;SDS011;15597;50.914;6.638;2024-03-08T10:28:02;21.23;;;10.48;;
28343;SDS011;15597;50.914;6.638;2024-03-08T10:30:30;19.65;;;9.50;;
28343;SDS011;15597;50.914;6.638;2024-03-08T10:32:55;22.60;;;11.25;;
28343;SDS011;15597;50.914;6.638;2024-03-08T10:35:21;24.35;;;10.60;;
28343;SDS011;15597;50.914;6.638;2024-03-08T10:37:51;21.90;;;10.98;;
28343;SDS011;15597;50.914;6.638;2024-03-08T10:40:24;20.15;;;10.00;;
28343;SDS011;15597;50.914;6.638;2024-03-08T10:42:54;19.98;;;10.02;;
28343;SDS011;15597;50.914;6.638;2024-03-08T10:47:51;20.83;;;9.90;;
28343;SDS011;15597;50.914;6.638;2024-03-08T10:50:37;21.63;;;10.95;;
28343;SDS011;15597;50.914;6.638;2024-03-08T10:53:04;19.65;;;10.30;;
28343;SDS011;15597;50.914;6.638;2024-03-08T10:55:33;19.60;;;9.65;;
28343;SDS011;15597;50.914;6.638;2024-03-08T10:58:01;19.33;;;9.98;;
28343;SDS011;15597;50.914;6.638;2024-03-08T11:00:26;20.52;;;10.65;;
28343;SDS011;15597;50.914;6.638;2024-03-08T11:02:53;21.48;;;10.05;;
28343;SDS011;15597;50.914;6.638;2024-03-08T11:08:01;17.75;;;9.55;;
28343;SDS011;15597;50.914;6.638;2024-03-08T11:12:54;19.92;;;9.93;;
28343;SDS011;15597;50.914;6.638;2024-03-08T11:15:19;18.13;;;9.55;;
28343;SDS011;15597;50.914;6.638;2024-03-08T11:17:46;17.50;;;8.93;;
28343;SDS011;15597;50.914;6.638;2024-03-08T11:20:14;18.60;;;9.10;;
28343;SDS011;15597;50.914;6.638;2024-03-08T11:22:50;17.23;;;8.77;;
28343;SDS011;15597;50.914;6.638;2024-03-08T11:28:27;17.52;;;8.40;;
28343;SDS011;15597;50.914;6.638;2024-03-08T11:33:27;16.60;;;8.25;;
28343;SDS011;15597;50.914;6.638;2024-03-08T11:36:07;19.63;;;9.50;;
28343;SDS011;15597;50.914;6.638;2024-03-08T11:38:45;16.88;;;8.57;;
28343;SDS011;15597;50.914;6.638;2024-03-08T11:41:17;17.15;;;9.15;;
28343;SDS011;15597;50.914;6.638;2024-03-08T11:43:47;17.73;;;8.55;;
28343;SDS011;15597;50.914;6.638;2024-03-08T11:46:14;16.25;;;8.23;;
28343;SDS011;15597;50.914;6.638;2024-03-08T11:51:11;17.13;;;8.73;;
28343;SDS011;15597;50.914;6.638;2024-03-08T11:53:37;16.23;;;8.27;;
28343;SDS011;15597;50.914;6.638;2024-03-08T11:56:11;16.25;;;8.82;;
28343;SDS011;15597;50.914;6.638;2024-03-08T11:58:37;17.38;;;8.98;;
28343;SDS011;15597;50.914;6.638;2024-03-08T12:01:04;16.88;;;7.85;;
28343;SDS011;15597;50.914;6.638;2024-03-08T12:03:40;17.05;;;8.45;;
28343;SDS011;15597;50.914;6.638;2024-03-08T12:06:11;15.45;;;8.45;;
28343;SDS011;15597;50.914;6.638;2024-03-08T12:08:40;15.15;;;8.15;;
28343;SDS011;15597;50.914;6.638;2024-03-08T12:11:06;18.25;;;9.15;;
28343;SDS011;15597;50.914;6.638;2024-03-08T12:13:33;16.65;;;9.00;;
28343;SDS011;15597;50.914;6.638;2024-03-08T12:16:02;18.40;;;9.00;;
28343;SDS011;15597;50.914;6.638;2024-03-08T12:18:37;19.50;;;8.55;;
28343;SDS011;15597;50.914;6.638;2024-03-08T12:21:10;17.58;;;8.80;;
28343;SDS011;15597;50.914;6.638;2024-03-08T12:23:39;14.20;;;8.13;;
28343;SDS011;15597;50.914;6.638;2024-03-08T12:26:23;16.75;;;8.27;;
28343;SDS011;15597;50.914;6.638;2024-03-08T12:28:51;14.48;;;7.65;;
28343;SDS011;15597;50.914;6.638;2024-03-08T12:31:17;16.02;;;9.43;;
28343;SDS011;15597;50.914;6.638;2024-03-08T12:33:55;15.75;;;7.80;;
28343;SDS011;15597;50.914;6.638;2024-03-08T12:36:25;17.30;;;8.18;;
28343;SDS011;15597;50.914;6.638;2024-03-08T12:38:51;17.02;;;9.25;;
28343;SDS011;15597;50.914;6.638;2024-03-08T12:41:19;15.90;;;8.40;;
28343;SDS011;15597;50.914;6.638;2024-03-08T12:43:46;14.80;;;8.00;;
28343;SDS011;15597;50.914;6.638;2024-03-08T12:46:16;14.48;;;7.75;;
28343;SDS011;15597;50.914;6.638;2024-03-08T12:48:46;16.45;;;7.50;;
28343;SDS011;15597;50.914;6.638;2024-03-08T12:51:15;16.58;;;8.50;;
28343;SDS011;15597;50.914;6.638;2024-03-08T12:58:59;15.75;;;7.60;;
28343;SDS011;15597;50.914;6.638;2024-03-08T13:01:26;14.70;;;8.02;;
28343;SDS011;15597;50.914;6.638;2024-03-08T13:03:53;16.48;;;7.40;;
28343;SDS011;15597;50.914;6.638;2024-03-08T13:06:20;14.90;;;7.95;;
28343;SDS011;15597;50.914;6.638;2024-03-08T13:08:52;13.80;;;7.57;;
28343;SDS011;15597;50.914;6.638;2024-03-08T13:11:19;14.32;;;7.57;;
28343;SDS011;15597;50.914;6.638;2024-03-08T13:13:45;14.80;;;7.25;;
28343;SDS011;15597;50.914;6.638;2024-03-08T13:16:11;13.30;;;7.57;;
28343;SDS011;15597;50.914;6.638;2024-03-08T13:18:40;13.35;;;7.47;;
28343;SDS011;15597;50.914;6.638;2024-03-08T13:21:09;12.70;;;7.15;;
28343;SDS011;15597;50.914;6.638;2024-03-08T13:23:36;12.57;;;7.38;;
28343;SDS011;15597;50.914;6.638;2024-03-08T13:26:08;13.45;;;7.65;;
28343;SDS011;15597;50.914;6.638;2024-03-08T13:28:37;12.75;;;7.55;;
28343;SDS011;15597;50.914;6.638;2024-03-08T13:31:06;13.13;;;7.70;;
28343;SDS011;15597;50.914;6.638;2024-03-08T13:33:33;14.88;;;7.70;;
28343;SDS011;15597;50.914;6.638;2024-03-08T13:36:03;13.40;;;7.50;;
28343;SDS011;15597;50.914;6.638;2024-03-08T13:38:34;12.95;;;7.55;;
28343;SDS011;15597;50.914;6.638;2024-03-08T13:41:01;14.63;;;8.25;;
28343;SDS011;15597;50.914;6.638;2024-03-08T13:43:28;14.93;;;7.75;;
28343;SDS011;15597;50.914;6.638;2024-03-08T13:45:54;13.90;;;6.57;;
28343;SDS011;15597;50.914;6.638;2024-03-08T13:48:20;14.48;;;6.85;;
28343;SDS011;15597;50.914;6.638;2024-03-08T13:50:48;15.27;;;7.78;;
28343;SDS011;15597;50.914;6.638;2024-03-08T13:53:15;15.93;;;7.95;;
28343;SDS011;15597;50.914;6.638;2024-03-08T13:55:41;14.15;;;6.88;;
28343;SDS011;15597;50.914;6.638;2024-03-08T13:58:06;11.63;;;6.90;;
28343;SDS011;15597;50.914;6.638;2024-03-08T14:00:35;12.80;;;6.72;;
28343;SDS011;15597;50.914;6.638;2024-03-08T14:03:01;13.50;;;7.47;;
28343;SDS011;15597;50.914;6.638;2024-03-08T14:05:35;13.63;;;7.85;;
28343;SDS011;15597;50.914;6.638;2024-03-08T14:08:05;13.27;;;7.53;;
28343;SDS011;15597;50.914;6.638;2024-03-08T14:10:34;13.13;;;7.85;;
28343;SDS011;15597;50.914;6.638;2024-03-08T14:13:02;12.57;;;7.38;;
28343;SDS011;15597;50.914;6.638;2024-03-08T14:15:33;15.27;;;6.57;;
28343;SDS011;15597;50.914;6.638;2024-03-08T14:18:00;12.80;;;7.80;;
28343;SDS011;15597;50.914;6.638;2024-03-08T14:20:26;12.90;;;6.97;;
28343;SDS011;15597;50.914;6.638;2024-03-08T14:22:55;12.32;;;7.13;;
28343;SDS011;15597;50.914;6.638;2024-03-08T14:25:22;14.07;;;7.35;;
28343;SDS011;15597;50.914;6.638;2024-03-08T14:27:49;13.80;;;7.55;;
28343;SDS011;15597;50.914;6.638;2024-03-08T14:30:19;14.43;;;7.53;;
28343;SDS011;15597;50.914;6.638;2024-03-08T14:33:03;13.85;;;7.00;;
28343;SDS011;15597;50.914;6.638;2024-03-08T14:35:34;11.68;;;6.90;;
28343;SDS011;15597;50.914;6.638;2024-03-08T14:38:01;12.95;;;7.40;;
28343;SDS011;15597;50.914;6.638;2024-03-08T14:40:27;15.00;;;6.90;;
28343;SDS011;15597;50.914;6.638;2024-03-08T14:45:21;13.98;;;6.93;;
28343;SDS011;15597;50.914;6.638;2024-03-08T14:47:49;12.68;;;6.82;;
28343;SDS011;15597;50.914;6.638;2024-03-08T14:50:18;12.98;;;7.10;;
28343;SDS011;15597;50.914;6.638;2024-03-08T14:52:45;13.30;;;7.07;;
28343;SDS011;15597;50.914;6.638;2024-03-08T14:55:20;12.07;;;7.22;;
28343;SDS011;15597;50.914;6.638;2024-03-08T14:57:50;12.43;;;6.47;;
28343;SDS011;15597;50.914;6.638;2024-03-08T15:00:19;13.80;;;6.68;;